Schneifelwetter: Wetterstation Hallschlag, 537 m . NN
Wetterdaten: Mittwoch, 08.12.2010
Datum Zeit Temp. A. Feuchte A. Luftdruck Regen Wind Richtung Richtung Sonnenschein Helligkeit T Regen Taupunkt Windchill
08.12.2010 00:11 -3,0 C 98 % 1000 hPa 0,0 l/m 5,5 km/h (1 Bft) NO 55 0 min 0 lux 0,00 min -3,3 C -3,0 C
08.12.2010 00:26 -3,0 C 98 % 1000 hPa 0,0 l/m 10,3 km/h (2 Bft) N-NO22.5 25 0 min 0 lux 0,00 min -3,3 C -7,0 C
08.12.2010 00:41 -3,0 C 98 % 1000 hPa 0,0 l/m 9,8 km/h (2 Bft) N-NO22.5 25 0 min 0 lux 0,00 min -3,3 C -6,6 C
08.12.2010 00:56 -3,0 C 98 % 1000 hPa 0,0 l/m 6,3 km/h (2 Bft) NO 50 0 min 0 lux 0,00 min -3,3 C -3,0 C
08.12.2010 01:11 -3,0 C 98 % 1000 hPa 0,0 l/m 6,8 km/h (2 Bft) NO 50 0 min 0 lux 0,00 min -3,3 C -3,4 C
08.12.2010 01:26 -3,0 C 98 % 1000 hPa 0,0 l/m 7,4 km/h (2 Bft) NO 55 0 min 0 lux 0,00 min -3,3 C -4,1 C
08.12.2010 01:41 -3,0 C 98 % 1000 hPa 0,0 l/m 7,5 km/h (2 Bft) NO 45 0 min 0 lux 0,00 min -3,3 C -4,2 C
08.12.2010 01:56 -2,9 C 99 % 1000 hPa 0,0 l/m 9,0 km/h (2 Bft) O-NO22.5 60 0 min 0 lux 0,00 min -3,0 C -5,7 C
08.12.2010 02:11 -2,9 C 99 % 1000 hPa 0,0 l/m 7,7 km/h (2 Bft) NO22.5 45 0 min 0 lux 0,00 min -3,0 C -4,4 C
08.12.2010 02:26 -2,8 C 99 % 1000 hPa 0,0 l/m 7,2 km/h (2 Bft) N-NO 30 0 min 0 lux 0,00 min -2,9 C -3,7 C
08.12.2010 02:41 -2,9 C 99 % 1000 hPa 0,0 l/m 7,8 km/h (2 Bft) NO22.5 40 0 min 0 lux 0,00 min -3,0 C -4,5 C
08.12.2010 02:56 -2,8 C 99 % 1001 hPa 0,0 l/m 7,6 km/h (2 Bft) NO 35 0 min 0 lux 0,00 min -2,9 C -4,2 C
08.12.2010 03:11 -2,8 C 99 % 1000 hPa 0,0 l/m 10,9 km/h (2 Bft) NO22.5 45 0 min 0 lux 0,00 min -2,9 C -7,3 C
08.12.2010 03:25 -2,7 C 99 % 1000 hPa 0,0 l/m 8,9 km/h (2 Bft) N-NO 25 0 min 0 lux 0,00 min -2,8 C -5,4 C
08.12.2010 03:40 -2,7 C 99 % 1000 hPa 0,0 l/m 8,1 km/h (2 Bft) NO22.5 45 0 min 0 lux 0,00 min -2,8 C -4,6 C
08.12.2010 03:55 -2,6 C 99 % 1000 hPa 0,0 l/m 6,2 km/h (2 Bft) NO 50 0 min 0 lux 0,00 min -2,7 C -2,6 C
08.12.2010 04:10 -2,6 C 99 % 1000 hPa 0,0 l/m 6,2 km/h (2 Bft) NO 50 0 min 0 lux 0,00 min -2,7 C -2,6 C
08.12.2010 04:25 -2,7 C 99 % 1000 hPa 0,0 l/m 11,5 km/h (2 Bft) O-NO22.5 60 0 min 0 lux 0,00 min -2,8 C -7,7 C
08.12.2010 04:40 -2,6 C 99 % 1000 hPa 0,0 l/m 8,7 km/h (2 Bft) O-NO22.5 60 0 min 0 lux 0,00 min -2,7 C -5,1 C
08.12.2010 04:55 -2,6 C 99 % 1000 hPa 0,0 l/m 10,6 km/h (2 Bft) NO22.5 40 0 min 0 lux 0,00 min -2,7 C -6,8 C
08.12.2010 05:10 -2,6 C 99 % 1000 hPa 0,0 l/m 10,3 km/h (2 Bft) NO22.5 40 0 min 0 lux 0,00 min -2,7 C -6,6 C
08.12.2010 05:25 -2,6 C 99 % 1000 hPa 0,0 l/m 9,0 km/h (2 Bft) O-NO22.5 60 0 min 0 lux 0,00 min -2,7 C -5,4 C
08.12.2010 05:40 -2,6 C 99 % 1000 hPa 0,0 l/m 7,6 km/h (2 Bft) O-NO22.5 60 0 min 0 lux 0,00 min -2,7 C -3,9 C
08.12.2010 05:55 -2,5 C 99 % 1000 hPa 0,0 l/m 8,8 km/h (2 Bft) NO22.5 45 0 min 0 lux 0,00 min -2,6 C -5,1 C
08.12.2010 06:10 -2,5 C 99 % 1000 hPa 0,0 l/m 10,5 km/h (2 Bft) NO22.5 35 0 min 0 lux 0,00 min -2,6 C -6,7 C
08.12.2010 06:25 -2,4 C 99 % 1000 hPa 0,0 l/m 7,6 km/h (2 Bft) NO22.5 55 0 min 0 lux 0,00 min -2,5 C -3,7 C
08.12.2010 06:40 -2,4 C 99 % 1000 hPa 0,0 l/m 9,3 km/h (2 Bft) O-NO22.5 65 0 min 0 lux 0,00 min -2,5 C -5,5 C
08.12.2010 06:55 -2,3 C 99 % 1000 hPa 0,0 l/m 11,3 km/h (2 Bft) NO22.5 35 0 min 0 lux 0,00 min -2,4 C -7,1 C
08.12.2010 07:10 -2,2 C 99 % 1000 hPa 0,0 l/m 7,4 km/h (2 Bft) NO22.5 55 0 min 0 lux 0,00 min -2,3 C -3,3 C
08.12.2010 07:25 -2,2 C 99 % 1000 hPa 0,0 l/m 9,0 km/h (2 Bft) NO22.5 45 0 min 0 lux 0,00 min -2,3 C -5,0 C
08.12.2010 07:40 -2,2 C 99 % 1000 hPa 0,0 l/m 8,1 km/h (2 Bft) N-NO22.5 20 0 min 0 lux 0,00 min -2,3 C -4,1 C
08.12.2010 08:01 -2,2 C 99 % 1000 hPa 0,0 l/m 7,7 km/h (2 Bft) N-NO22.5 15 0 min 0 lux 0,00 min -2,3 C -3,6 C
08.12.2010 08:17 -2,2 C 99 % 1000 hPa 0,0 l/m 8,8 km/h (2 Bft) N-NO 15 0 min 78 lux 0,00 min -2,3 C -4,8 C
08.12.2010 08:32 -2,2 C 99 % 1000 hPa 0,0 l/m 12,6 km/h (3 Bft) N-NO22.5 20 0 min 182 lux 0,00 min -2,3 C -8,0 C
08.12.2010 08:46 -2,2 C 99 % 1000 hPa 0,0 l/m 11,6 km/h (2 Bft) N-NO22.5 20 0 min 430 lux 0,00 min -2,3 C -7,2 C
08.12.2010 09:01 -2,2 C 99 % 1000 hPa 0,0 l/m 10,3 km/h (2 Bft) N-NO22.5 30 0 min 1,02 klux 0,00 min -2,3 C -6,1 C
08.12.2010 09:16 -2,1 C 99 % 1000 hPa 0,0 l/m 10,6 km/h (2 Bft) N-NO22.5 20 0 min 1,82 klux 0,00 min -2,2 C -6,3 C
08.12.2010 09:31 -2,0 C 99 % 1000 hPa 0,0 l/m 11,2 km/h (2 Bft) N-NO22.5 25 0 min 2,93 klux 0,00 min -2,1 C -6,7 C
08.12.2010 09:47 -1,8 C 99 % 1000 hPa 0,0 l/m 9,0 km/h (2 Bft) N-NO 20 0 min 4,55 klux 0,00 min -1,9 C -4,5 C
08.12.2010 10:02 -1,7 C 99 % 1000 hPa 0,0 l/m 10,5 km/h (2 Bft) N-NO22.5 25 0 min 4,74 klux 0,00 min -1,8 C -5,8 C
08.12.2010 10:17 -1,7 C 99 % 1000 hPa 0,0 l/m 11,3 km/h (2 Bft) N-NO22.5 20 0 min 3,83 klux 0,00 min -1,8 C -6,4 C
08.12.2010 10:31 -1,7 C 99 % 1001 hPa 0,0 l/m 5,2 km/h (1 Bft) N-NO 25 0 min 5,70 klux 0,00 min -1,8 C -1,7 C
08.12.2010 10:46 -1,6 C 98 % 1001 hPa 0,0 l/m 9,3 km/h (2 Bft) N-NO 25 0 min 8,62 klux 0,00 min -1,9 C -4,6 C
08.12.2010 11:01 -1,7 C 98 % 1001 hPa 0,0 l/m 13,6 km/h (3 Bft) N-NO22.5 25 0 min 10,3 klux 0,00 min -2,0 C -8,1 C
08.12.2010 11:16 -1,6 C 97 % 1000 hPa 0,0 l/m 15,1 km/h (3 Bft) N-NO22.5 25 0 min 12,9 klux 0,00 min -2,0 C -9,0 C
08.12.2010 11:32 -1,4 C 97 % 1000 hPa 0,0 l/m 18,7 km/h (3 Bft) N-NO22.5 30 0 min 21,8 klux 0,00 min -1,8 C -10,8 C
08.12.2010 11:47 -1,6 C 97 % 1000 hPa 0,0 l/m 15,5 km/h (3 Bft) N-NO22.5 25 0 min 18,0 klux 0,00 min -2,0 C -9,2 C
08.12.2010 12:02 -1,0 C 97 % 1001 hPa 0,0 l/m 14,6 km/h (3 Bft) N-NO22.5 15 0 min 30,9 klux 0,00 min -1,4 C -7,9 C
08.12.2010 12:16 -1,0 C 97 % 1001 hPa 0,0 l/m 11,2 km/h (2 Bft) N-NO67.5 30 0 min 17,9 klux 0,00 min -1,4 C -5,5 C
08.12.2010 12:31 -1,2 C 97 % 1001 hPa 0,0 l/m 10,4 km/h (2 Bft) N-NO22.5 25 0 min 14,9 klux 0,00 min -1,6 C -5,1 C
08.12.2010 12:46 -1,0 C 97 % 1001 hPa 0,0 l/m 11,5 km/h (2 Bft) N-NO22.5 25 0 min 17,0 klux 0,00 min -1,4 C -5,8 C
08.12.2010 13:02 -1,2 C 96 % 1001 hPa 0,0 l/m 16,6 km/h (3 Bft) N-NO22.5 15 0 min 11,2 klux 0,00 min -1,8 C -9,4 C
08.12.2010 13:17 -1,3 C 96 % 1001 hPa 0,0 l/m 14,0 km/h (3 Bft) N45 5 0 min 11,9 klux 0,00 min -1,9 C -7,9 C
08.12.2010 13:32 -1,4 C 97 % 1001 hPa 0,0 l/m 13,8 km/h (3 Bft) N67.5 10 0 min 8,89 klux 0,00 min -1,8 C -7,9 C
08.12.2010 13:46 -1,4 C 97 % 1001 hPa 0,0 l/m 11,0 km/h (2 Bft) N-NO22.5 30 0 min 9,2 klux 0,00 min -1,8 C -5,8 C
08.12.2010 14:01 -1,4 C 97 % 1001 hPa 0,0 l/m 9,6 km/h (2 Bft) N-NO22.5 20 0 min 9,1 klux 0,00 min -1,8 C -4,6 C
08.12.2010 14:16 -1,7 C 96 % 1001 hPa 0,0 l/m 16,0 km/h (3 Bft) N67.5 355 0 min 7,85 klux 0,00 min -2,3 C -9,7 C
08.12.2010 14:31 -2,0 C 96 % 1000 hPa 0,0 l/m 16,5 km/h (3 Bft) N45 5 0 min 6,28 klux 0,00 min -2,6 C -10,3 C
08.12.2010 14:47 -2,2 C 97 % 1001 hPa 0,0 l/m 14,3 km/h (3 Bft) N22.5 5 0 min 4,90 klux 0,00 min -2,6 C -9,2 C
08.12.2010 15:02 -2,5 C 97 % 1001 hPa 0,0 l/m 23,3 km/h (4 Bft) N67.5 355 0 min 4,96 klux 0,00 min -2,9 C -14,4 C
08.12.2010 15:17 -2,6 C 97 % 1000 hPa 0,0 l/m 19,8 km/h (3 Bft) N-NO67.5 20 0 min 3,25 klux 0,00 min -3,0 C -12,9 C
08.12.2010 15:31 -2,8 C 97 % 1001 hPa 0,0 l/m 14,0 km/h (3 Bft) N22.5 5 0 min 2,65 klux 0,00 min -3,2 C -9,7 C
08.12.2010 15:46 -2,9 C 97 % 1001 hPa 0,0 l/m 16,6 km/h (3 Bft) N22.5 5 0 min 1,56 klux 0,00 min -3,3 C -11,5 C
08.12.2010 16:01 -3,1 C 97 % 1001 hPa 0,0 l/m 15,9 km/h (3 Bft) N22.5 10 0 min 1,11 klux 0,00 min -3,5 C -11,3 C
08.12.2010 16:16 -3,3 C 96 % 1001 hPa 0,0 l/m 19,0 km/h (3 Bft) N22.5 5 0 min 682 lux 0,00 min -3,8 C -13,4 C
08.12.2010 16:32 -3,4 C 97 % 1002 hPa 0,0 l/m 14,2 km/h (3 Bft) N45 350 0 min 347 lux 0,00 min -3,8 C -10,6 C
08.12.2010 16:47 -3,6 C 96 % 1002 hPa 0,0 l/m 23,5 km/h (4 Bft) N22.5 10 0 min 145 lux 0,00 min -4,1 C -16,0 C
08.12.2010 17:01 -3,7 C 96 % 1002 hPa 0,0 l/m 18,9 km/h (3 Bft) N22.5 360 0 min 39 lux 0,00 min -4,2 C -13,8 C
08.12.2010 17:16 -3,8 C 96 % 1002 hPa 0,0 l/m 20,5 km/h (4 Bft) N45 360 0 min 10 lux 0,00 min -4,3 C -14,8 C
08.12.2010 17:31 -3,9 C 96 % 1002 hPa 0,0 l/m 20,8 km/h (4 Bft) N22.5 360 0 min 0 lux 0,00 min -4,4 C -15,1 C
08.12.2010 17:46 -4,0 C 96 % 1002 hPa 0,0 l/m 19,1 km/h (3 Bft) N45 5 0 min 0 lux 0,00 min -4,5 C -14,3 C
08.12.2010 18:02 -4,0 C 96 % 1002 hPa 0,0 l/m 25,4 km/h (4 Bft) N-NO67.5 15 0 min 0 lux 0,00 min -4,5 C -17,3 C
08.12.2010 18:17 -4,1 C 96 % 1002 hPa 0,0 l/m 20,9 km/h (4 Bft) N67.5 360 0 min 0 lux 0,00 min -4,6 C -15,4 C
08.12.2010 18:32 -4,1 C 96 % 1002 hPa 0,0 l/m 21,5 km/h (4 Bft) N-NO45 15 0 min 0 lux 0,00 min -4,6 C -15,7 C
08.12.2010 18:46 -4,2 C 96 % 1003 hPa 0,0 l/m 14,8 km/h (3 Bft) N-NO67.5 25 0 min 0 lux 0,00 min -4,7 C -11,9 C
08.12.2010 19:01 -4,2 C 96 % 1003 hPa 0,0 l/m 15,7 km/h (3 Bft) N22.5 5 0 min 0 lux 0,00 min -4,7 C -12,5 C
08.12.2010 19:16 -4,2 C 96 % 1003 hPa 0,0 l/m 21,0 km/h (4 Bft) N45 10 0 min 0 lux 0,00 min -4,7 C -15,6 C
08.12.2010 19:31 -4,2 C 96 % 1003 hPa 0,0 l/m 21,0 km/h (4 Bft) N22.5 5 0 min 0 lux 0,00 min -4,7 C -15,6 C
08.12.2010 19:47 -4,2 C 96 % 1003 hPa 0,0 l/m 18,6 km/h (3 Bft) N45 360 0 min 0 lux 0,00 min -4,7 C -14,3 C
08.12.2010 20:02 -4,3 C 96 % 1004 hPa 0,0 l/m 17,6 km/h (3 Bft) N45 355 0 min 0 lux 0,00 min -4,8 C -13,8 C
08.12.2010 20:17 -4,3 C 96 % 1004 hPa 0,0 l/m 22,8 km/h (4 Bft) N22.5 360 0 min 0 lux 0,00 min -4,8 C -16,6 C
08.12.2010 20:31 -4,3 C 96 % 1005 hPa 0,0 l/m 20,3 km/h (4 Bft) N45 360 0 min 0 lux 0,00 min -4,8 C -15,3 C
08.12.2010 20:46 -4,2 C 96 % 1005 hPa 0,0 l/m 18,1 km/h (3 Bft) N-NW67.5 345 0 min 0 lux 0,00 min -4,7 C -14,0 C
08.12.2010 21:01 -4,2 C 96 % 1006 hPa 0,0 l/m 18,7 km/h (3 Bft) N22.5 360 0 min 0 lux 0,00 min -4,7 C -14,4 C
08.12.2010 21:16 -4,2 C 96 % 1006 hPa 0,0 l/m 24,3 km/h (4 Bft) N-NW45 345 0 min 0 lux 0,00 min -4,7 C -17,1 C
08.12.2010 21:32 -4,1 C 97 % 1007 hPa 0,0 l/m 28,4 km/h (4 Bft) N22.5 350 0 min 0 lux 0,00 min -4,5 C -18,6 C
08.12.2010 21:47 -4,1 C 97 % 1007 hPa 0,0 l/m 24,0 km/h (4 Bft) N22.5 360 0 min 0 lux 0,00 min -4,5 C -16,8 C
08.12.2010 22:01 -4,1 C 97 % 1007 hPa 0,0 l/m 25,9 km/h (4 Bft) N67.5 350 0 min 0 lux 0,00 min -4,5 C -17,6 C
08.12.2010 22:16 -4,2 C 96 % 1008 hPa 0,0 l/m 25,1 km/h (4 Bft) N67.5 355 0 min 0 lux 0,00 min -4,7 C -17,5 C
08.12.2010 22:31 -4,2 C 96 % 1008 hPa 0,0 l/m 20,0 km/h (4 Bft) N67.5 5 0 min 0 lux 0,00 min -4,7 C -15,1 C
08.12.2010 22:46 -4,3 C 96 % 1008 hPa 0,0 l/m 24,4 km/h (4 Bft) N45 5 0 min 0 lux 0,00 min -4,8 C -17,3 C
08.12.2010 23:02 -4,4 C 96 % 1009 hPa 0,0 l/m 18,2 km/h (3 Bft) N-NW67.5 340 0 min 0 lux 0,00 min -4,9 C -14,3 C
08.12.2010 23:17 -4,5 C 96 % 1009 hPa 0,0 l/m 20,2 km/h (4 Bft) NW45 320 0 min 0 lux 0,00 min -5,0 C -15,6 C
08.12.2010 23:32 -4,7 C 96 % 1010 hPa 0,0 l/m 12,3 km/h (3 Bft) N-NW45 330 0 min 0 lux 0,00 min -5,2 C -10,7 C
08.12.2010 23:46 -5,0 C 96 % 1010 hPa 0,0 l/m 13,2 km/h (3 Bft) NW67.5 310 0 min 0 lux 0,00 min -5,5 C -11,7 C
_ Min-Zeit 23:46 13:02 00:11 - 10:31 - - - - - 23:46 21:32
Minimum _ -5,0 C 96 % 1000 hPa - 5,2 km/h (1 Bft) - - - - - -5,5 C -18,6 C
_ Max-Zeit 12:02 01:56 23:32 00:11 21:32 - - 00:11 12:02 00:11 12:02 10:31
Maximum _ -1,0 C 99 % 1010 hPa 0,0 l/m 28,4 km/h
N (4 Bft)
- - 0 min 30,9 klux 0,00 min -1,4 C -1,7 C
Durchschnitt _ -2,9 C 98 % 1002 hPa #0,0 l/m 13,9 km/h (3 Bft) N-NO - #0 min. 2,75 klux #0 min. -3,2 C -9,1 C